Time;durP1;ratioP1;P1;durP2;ratioP2;P2;SDS_P1;SDS_P2;PMS_P1;PMS_P2;Temp;Humidity;BMP_temperature;BMP_pressure;BME280_temperature;BME280_humidity;BME280_pressure;Samples;Min_cycle;Max_cycle;Signal;HPM_P1;HPM_P2
2022/11/13 00:02:09;;;;;;;37.58;22.83;;;4.30;99.90;;;2.65;100.00;101991.78;5045796;28;20570;-77
2022/11/13 00:04:54;;;;;;;38.92;22.63;;;4.30;99.90;;;2.69;100.00;101988.72;5045531;28;20043;-77
2022/11/13 00:07:38;;;;;;;38.17;22.77;;;4.30;99.90;;;2.75;100.00;101994.56;5045832;28;20044;-77
2022/11/13 00:10:23;;;;;;;37.92;23.05;;;4.30;99.90;;;2.75;100.00;101994.56;5043300;28;20044;-78
2022/11/13 00:13:07;;;;;;;39.40;23.17;;;4.30;99.90;;;2.65;100.00;101992.66;5045065;28;20516;-78
2022/11/13 00:16:00;;;;;;;37.92;22.52;;;4.20;99.90;;;2.58;100.00;101989.63;5045602;28;20044;-78
2022/11/13 00:18:46;;;;;;;39.38;22.48;;;4.20;99.90;;;2.53;100.00;101991.00;5044936;28;20440;-77
2022/11/13 00:21:30;;;;;;;39.13;22.35;;;4.10;99.90;;;2.51;100.00;101987.56;5044840;28;20040;-78
2022/11/13 00:24:15;;;;;;;41.80;23.02;;;4.10;99.90;;;2.44;100.00;101981.84;5045410;28;20095;-77
2022/11/13 00:26:59;;;;;;;40.05;22.38;;;4.00;99.90;;;2.39;100.00;101982.25;5044649;28;20162;-77
2022/11/13 00:29:44;;;;;;;34.95;20.30;;;4.00;99.90;;;2.40;100.00;101980.41;5045121;28;20124;-77
2022/11/13 00:32:28;;;;;;;37.05;22.15;;;4.00;99.90;;;2.38;100.00;101971.59;5048401;28;20048;-78
2022/11/13 00:35:13;;;;;;;33.53;19.45;;;4.00;99.90;;;2.25;100.00;101977.19;5049229;28;20102;-78
2022/11/13 00:37:58;;;;;;;35.42;20.80;;;3.90;99.90;;;2.22;100.00;101972.06;5048145;28;20159;-78
2022/11/13 00:40:42;;;;;;;38.50;21.27;;;3.80;99.90;;;2.38;100.00;101971.59;5047488;28;20102;-78
2022/11/13 00:43:27;;;;;;;36.72;20.90;;;3.80;99.90;;;2.38;100.00;101975.13;5049530;28;20082;-79
2022/11/13 00:46:12;;;;;;;33.40;19.95;;;3.90;99.90;;;2.37;100.00;101970.72;5048678;28;20075;-77
2022/11/13 00:48:56;;;;;;;39.25;21.90;;;4.00;99.90;;;2.41;100.00;101972.22;5046288;28;20043;-77
2022/11/13 00:51:40;;;;;;;37.17;21.50;;;4.00;99.90;;;2.40;100.00;101973.19;5048571;28;20048;-77
2022/11/13 00:54:25;;;;;;;41.47;21.27;;;3.90;99.90;;;2.44;100.00;101945.00;5049233;28;20044;-78
2022/11/13 00:57:10;;;;;;;37.97;21.35;;;4.00;99.90;;;2.51;100.00;101966.03;5043384;28;20531;-78
2022/11/13 00:59:54;;;;;;;37.30;22.25;;;4.10;99.90;;;2.43;100.00;101975.63;5048621;28;20519;-78
2022/11/13 01:02:39;;;;;;;35.85;21.05;;;4.10;99.90;;;2.33;100.00;101971.97;5047460;28;20044;-78
2022/11/13 01:05:24;;;;;;;37.33;20.52;;;3.90;99.90;;;2.15;100.00;101961.81;5048081;28;20546;-78
2022/11/13 01:08:09;;;;;;;32.58;19.42;;;3.80;99.90;;;2.07;100.00;101969.66;5043258;28;20106;-79
2022/11/13 01:10:54;;;;;;;33.47;19.48;;;3.70;99.90;;;1.97;100.00;101968.72;5048212;28;20091;-77
2022/11/13 01:13:41;;;;;;;30.85;18.42;;;3.60;99.90;;;1.84;100.00;101972.41;5045360;28;20035;-78
2022/11/13 01:16:27;;;;;;;29.58;17.52;;;3.50;99.90;;;1.71;100.00;101971.72;5048942;28;20063;-78
2022/11/13 01:19:12;;;;;;;31.38;19.83;;;3.30;99.90;;;1.72;100.00;101962.66;5048954;28;20047;-78
2022/11/13 01:21:56;;;;;;;34.42;20.08;;;3.30;99.90;;;1.75;100.00;101959.72;5047488;28;20043;-78
2022/11/13 01:24:41;;;;;;;33.03;20.17;;;3.40;99.90;;;1.66;100.00;101957.81;5047784;28;20036;-76
2022/11/13 01:27:25;;;;;;;30.42;17.50;;;3.30;99.90;;;1.47;100.00;101959.28;5047776;28;20130;-78
2022/11/13 01:30:11;;;;;;;30.30;17.17;;;3.10;99.90;;;1.34;100.00;101955.91;5048955;28;20110;-75
2022/11/13 01:32:55;;;;;;;30.92;17.95;;;2.90;99.90;;;1.26;100.00;101960.03;5047539;28;20116;-79
2022/11/13 01:35:40;;;;;;;31.63;19.52;;;2.80;99.90;;;1.32;100.00;101956.00;5044893;28;20144;-77
2022/11/13 01:38:24;;;;;;;32.00;18.52;;;2.90;99.90;;;1.33;100.00;101952.34;5047681;28;20048;-77
2022/11/13 01:41:29;;;;;;;32.55;18.65;;;2.90;99.90;;;1.24;100.00;101939.66;5047905;28;20492;-78
2022/11/13 01:44:17;;;;;;;36.33;18.45;;;2.80;99.90;;;1.22;100.00;101942.44;5047122;28;20090;-78
2022/11/13 01:47:03;;;;;;;30.67;18.83;;;2.80;99.90;;;1.32;100.00;101941.69;5044058;28;20661;-78
2022/11/13 01:49:51;;;;;;;29.40;18.38;;;2.80;99.90;;;1.29;100.00;101932.91;5043024;28;20175;-78
2022/11/13 01:52:41;;;;;;;25.58;17.08;;;2.80;99.90;;;1.23;100.00;101940.63;5047226;28;20117;-76
2022/11/13 01:55:25;;;;;;;30.52;17.10;;;2.80;99.90;;;1.23;100.00;101937.94;5043455;28;20040;-76
2022/11/13 01:58:12;;;;;;;27.42;17.42;;;2.80;99.90;;;1.43;100.00;101937.16;5046610;28;20048;-76
2022/11/13 02:00:56;;;;;;;29.88;17.70;;;2.90;99.90;;;1.50;100.00;101934.00;5045285;28;20093;-77
2022/11/13 02:03:40;;;;;;;28.73;18.02;;;3.00;99.90;;;1.46;100.00;101928.00;5047299;28;20638;-77
2022/11/13 02:06:32;;;;;;;31.65;18.88;;;3.10;99.90;;;1.44;100.00;101917.34;5045825;28;20079;-77
2022/11/13 02:09:23;;;;;;;32.10;18.88;;;3.00;99.90;;;1.43;100.00;101914.81;5047243;28;20130;-76
2022/11/13 02:12:13;;;;;;;31.90;18.23;;;3.00;99.90;;;1.39;100.00;101916.03;5047121;28;20049;-76
2022/11/13 02:15:01;;;;;;;32.58;18.70;;;3.00;99.90;;;1.38;100.00;101914.34;5047724;28;20123;-76
2022/11/13 02:17:52;;;;;;;31.90;18.65;;;3.00;99.90;;;1.25;100.00;101904.56;5047612;28;20436;-76
2022/11/13 02:21:11;;;;;;;32.42;18.02;;;2.90;99.90;;;1.15;100.00;101915.19;5047091;28;20122;-76
2022/11/13 02:24:24;;;;;;;27.50;16.08;;;2.80;99.90;;;1.03;100.00;101915.31;5047033;28;20083;-76
2022/11/13 02:27:33;;;;;;;25.02;16.27;;;2.70;99.90;;;0.82;100.00;101916.94;5045351;28;20047;-76
2022/11/13 02:30:25;;;;;;;27.02;15.05;;;2.50;99.90;;;0.73;100.00;101928.41;5043011;28;20547;-76
2022/11/13 02:33:27;;;;;;;23.77;14.90;;;2.30;99.90;;;0.65;100.00;101933.50;5047692;28;20048;-76
2022/11/13 02:36:14;;;;;;;25.23;15.32;;;2.30;99.90;;;0.52;100.00;101933.59;5046492;28;20077;-75
2022/11/13 02:39:04;;;;;;;27.55;14.73;;;2.20;99.90;;;0.44;100.00;101934.22;5046286;28;20124;-76
2022/11/13 02:41:48;;;;;;;26.35;15.68;;;2.10;99.90;;;0.43;100.00;101929.81;5045699;28;20083;-75
2022/11/13 02:44:33;;;;;;;30.85;16.63;;;2.10;99.90;;;0.49;100.00;101939.22;5042963;28;20076;-76
2022/11/13 02:47:17;;;;;;;22.85;13.27;;;2.10;99.90;;;0.40;100.00;101930.91;5044697;28;20075;-76
2022/11/13 02:50:04;;;;;;;20.83;13.73;;;2.10;99.90;;;0.26;100.00;101929.28;5046259;28;20483;-76
2022/11/13 02:52:48;;;;;;;21.83;13.48;;;1.90;99.90;;;0.10;100.00;101918.88;5042111;28;20056;-76
2022/11/13 02:55:33;;;;;;;38.38;14.50;;;1.80;99.90;;;-0.05;100.00;101920.88;5046289;28;20056;-76
2022/11/13 02:58:17;;;;;;;23.92;14.25;;;1.70;99.90;;;-0.18;100.00;101923.63;5043185;28;20056;-76
2022/11/13 03:01:03;;;;;;;38.05;19.25;;;1.60;99.90;;;0.05;100.00;101915.69;5040919;28;20359;-76
2022/11/13 03:03:47;;;;;;;33.28;18.98;;;1.70;99.90;;;0.16;100.00;101912.19;5044738;28;20047;-76
2022/11/13 03:06:32;;;;;;;31.38;17.48;;;1.90;99.90;;;0.12;100.00;101914.22;5042136;28;20048;-75
2022/11/13 03:09:16;;;;;;;37.42;19.83;;;1.80;99.90;;;0.26;100.00;101912.31;5043755;28;20110;-76
2022/11/13 03:12:01;;;;;;;43.58;23.98;;;1.90;99.90;;;0.47;100.00;101907.13;5045678;28;20583;-76
2022/11/13 03:14:45;;;;;;;39.05;23.65;;;2.10;99.90;;;0.72;100.00;101899.84;5045756;28;20052;-75
2022/11/13 03:17:31;;;;;;;39.03;22.88;;;2.40;99.90;;;0.69;100.00;101892.03;5045537;28;20044;-76
2022/11/13 03:20:16;;;;;;;41.03;22.05;;;2.40;99.90;;;0.57;100.00;101899.22;5045490;28;20140;-77
2022/11/13 03:23:02;;;;;;;42.50;22.00;;;2.20;99.90;;;0.54;100.00;101904.81;5045947;28;20140;-76
2022/11/13 03:25:46;;;;;;;42.25;22.63;;;2.10;99.90;;;0.64;100.00;101899.56;5045629;28;20052;-76
2022/11/13 03:28:31;;;;;;;46.42;24.40;;;2.20;99.90;;;0.92;100.00;101897.38;5045718;28;20094;-76
2022/11/13 03:31:16;;;;;;;52.00;24.58;;;2.50;99.90;;;1.02;100.00;101890.31;5044733;28;20060;-76
2022/11/13 03:34:00;;;;;;;49.40;25.70;;;2.60;99.90;;;1.04;100.00;101885.66;5042520;28;20536;-76
2022/11/13 03:36:45;;;;;;;46.58;25.80;;;2.70;99.90;;;1.12;100.00;101879.66;5046131;28;20258;-76
2022/11/13 03:39:29;;;;;;;48.92;26.25;;;2.70;99.90;;;1.15;100.00;101884.78;5045920;28;20048;-76
2022/11/13 03:42:14;;;;;;;47.03;23.73;;;2.80;99.90;;;0.96;100.00;101891.63;5038624;28;20182;-75
2022/11/13 03:44:58;;;;;;;43.22;24.20;;;2.60;99.90;;;0.77;100.00;101876.13;5044971;28;20570;-76
2022/11/13 03:47:43;;;;;;;46.42;24.35;;;2.50;99.90;;;0.81;100.00;101879.44;5045550;28;20473;-76
2022/11/13 03:50:27;;;;;;;50.05;22.98;;;2.50;99.90;;;0.77;100.00;101877.97;5045311;28;20171;-75
2022/11/13 03:53:12;;;;;;;49.50;24.13;;;2.50;99.90;;;0.68;100.00;101884.94;5046040;28;20047;-75
2022/11/13 03:55:57;;;;;;;49.53;25.02;;;2.40;99.90;;;0.80;100.00;101875.06;5042949;28;20098;-76
2022/11/13 03:58:42;;;;;;;50.78;25.63;;;2.40;99.90;;;1.00;100.00;101871.59;5045055;28;20357;-75
2022/11/13 04:01:26;;;;;;;46.30;24.35;;;2.60;99.90;;;0.97;100.00;101874.53;5044941;28;20094;-76
2022/11/13 04:04:11;;;;;;;43.95;24.38;;;2.60;99.90;;;0.78;100.00;101869.78;5046544;28;20048;-76
2022/11/13 04:06:55;;;;;;;44.42;23.17;;;2.50;99.90;;;0.62;100.00;101869.28;5048996;28;20040;-76
2022/11/13 04:09:40;;;;;;;44.03;23.00;;;2.30;99.90;;;0.59;100.00;101875.78;5050037;28;20048;-75
2022/11/13 04:12:24;;;;;;;36.75;21.10;;;2.30;99.90;;;0.54;100.00;101872.59;5049965;28;20116;-75
2022/11/13 04:15:09;;;;;;;37.78;21.13;;;2.20;99.90;;;0.41;100.00;101873.53;5049040;28;20055;-76
2022/11/13 04:17:53;;;;;;;39.70;19.83;;;2.10;99.90;;;0.18;100.00;101859.25;5049579;28;20047;-76
2022/11/13 04:20:38;;;;;;;37.10;19.38;;;1.90;99.90;;;0.09;100.00;101873.34;5047367;28;20570;-77
2022/11/13 04:23:23;;;;;;;30.50;18.52;;;1.70;99.90;;;-0.15;100.00;101847.41;5048647;28;20039;-76
2022/11/13 04:26:07;;;;;;;28.00;17.35;;;1.60;99.90;;;-0.15;100.00;101866.19;5044730;28;20052;-76
2022/11/13 04:28:52;;;;;;;29.38;16.73;;;1.50;99.90;;;-0.24;100.00;101858.84;5044881;28;20226;-76
2022/11/13 04:31:36;;;;;;;31.55;17.55;;;1.40;99.90;;;-0.30;100.00;101853.00;5049000;28;20131;-76
2022/11/13 04:34:21;;;;;;;27.25;16.35;;;1.40;99.90;;;-0.38;100.00;101866.13;5048073;28;20036;-76
2022/11/13 04:37:06;;;;;;;27.98;16.77;;;1.30;99.90;;;-0.50;100.00;101861.66;5048783;28;20109;-76
2022/11/13 04:39:50;;;;;;;32.05;18.65;;;1.10;99.90;;;-0.66;100.00;101861.94;5044944;28;20086;-75
2022/11/13 04:42:50;;;;;;;28.85;16.73;;;1.00;99.90;;;-0.79;100.00;101857.50;5049678;28;20048;-76
2022/11/13 04:45:35;;;;;;;56.95;17.35;;;0.90;99.90;;;-0.84;100.00;101850.75;5045587;28;20080;-78
2022/11/13 04:48:19;;;;;;;22.83;14.93;;;0.80;99.90;;;-0.85;100.00;101841.00;5048755;28;20079;-77
2022/11/13 04:51:04;;;;;;;25.48;15.48;;;0.80;99.90;;;-0.82;100.00;101836.25;5045742;28;20103;-76
2022/11/13 04:53:48;;;;;;;23.25;14.90;;;0.80;99.90;;;-0.78;100.00;101836.91;5047919;28;20044;-76
2022/11/13 04:56:33;;;;;;;26.55;15.38;;;0.90;99.90;;;-0.69;100.00;101836.22;5045703;28;20079;-76
2022/11/13 04:59:18;;;;;;;215.82;23.77;;;0.90;99.90;;;-0.44;100.00;101827.22;5047632;28;20420;-76
2022/11/13 05:02:03;;;;;;;235.35;23.20;;;1.20;99.90;;;-0.28;100.00;101819.81;5048165;28;20084;-76
2022/11/13 05:04:48;;;;;;;39.35;20.00;;;1.40;99.90;;;-0.35;100.00;101804.22;5044265;28;20067;-76
2022/11/13 05:07:32;;;;;;;36.00;21.08;;;1.40;99.90;;;-0.29;100.00;101813.59;5045123;28;20053;-76
2022/11/13 05:10:17;;;;;;;35.45;20.60;;;1.40;99.90;;;-0.21;100.00;101794.25;5045436;28;20098;-76
2022/11/13 05:13:02;;;;;;;41.00;22.20;;;1.50;99.90;;;0.06;100.00;101807.38;5046158;28;20149;-76
2022/11/13 05:15:46;;;;;;;39.55;22.17;;;1.70;99.90;;;0.10;100.00;101810.66;5047637;28;20080;-76
2022/11/13 05:18:35;;;;;;;40.58;22.75;;;1.80;99.90;;;0.13;100.00;101816.63;5046855;28;20097;-77
2022/11/13 05:21:19;;;;;;;42.17;23.42;;;1.80;99.90;;;0.16;100.00;101820.94;5048570;28;20052;-76
2022/11/13 05:24:04;;;;;;;48.85;23.77;;;1.80;99.90;;;0.22;100.00;101811.50;5042990;28;20541;-76
2022/11/13 05:26:50;;;;;;;52.25;24.40;;;1.90;99.90;;;0.14;100.00;101810.28;5047882;28;20055;-77
2022/11/13 05:29:34;;;;;;;41.45;23.08;;;1.80;99.90;;;0.03;100.00;101814.78;5043417;28;20063;-76
2022/11/13 05:32:18;;;;;;;37.00;20.90;;;1.70;99.90;;;-0.12;100.00;101823.06;5048121;28;20672;-76
2022/11/13 05:35:03;;;;;;;36.28;19.60;;;1.50;99.90;;;-0.28;100.00;101815.31;5046788;28;20052;-76
2022/11/13 05:37:48;;;;;;;35.08;21.13;;;1.40;99.90;;;-0.42;100.00;101805.63;5049292;28;20570;-76
2022/11/13 05:40:32;;;;;;;36.15;19.75;;;1.20;99.90;;;-0.50;100.00;101824.13;5048027;28;20099;-76
2022/11/13 05:43:17;;;;;;;33.55;19.52;;;1.20;99.90;;;-0.62;100.00;101815.19;5044497;28;20370;-76
2022/11/13 05:46:15;;;;;;;35.58;19.45;;;1.10;99.90;;;-0.63;100.00;101817.03;5048407;28;20048;-76
2022/11/13 05:49:01;;;;;;;30.15;17.52;;;1.00;99.90;;;-0.79;100.00;101819.13;5047215;28;20059;-76
2022/11/13 05:51:45;;;;;;;29.70;16.42;;;0.80;99.90;;;-0.97;100.00;101811.44;5046853;28;20091;-77
2022/11/13 05:54:30;;;;;;;27.50;16.15;;;0.70;99.90;;;-1.26;100.00;101794.84;5043095;28;20475;-77
2022/11/13 05:57:14;;;;;;;25.95;16.02;;;0.50;99.90;;;-1.34;100.00;101814.13;5047337;28;20056;-77
2022/11/13 05:59:59;;;;;;;23.88;15.23;;;0.30;99.90;;;-1.39;100.00;101806.41;5046961;28;20067;-78
2022/11/13 06:02:43;;;;;;;27.58;15.45;;;0.30;99.90;;;-1.45;100.00;101804.19;5046957;28;20052;-78
2022/11/13 06:05:28;;;;;;;27.90;16.10;;;0.20;99.90;;;-1.49;100.00;101808.06;5046430;28;20086;-77
2022/11/13 06:08:12;;;;;;;24.52;15.25;;;0.10;99.90;;;-1.55;100.00;101800.47;5047513;28;20558;-79
2022/11/13 06:11:02;;;;;;;28.13;16.75;;;0.10;99.90;;;-1.49;100.00;101808.88;5047817;28;20424;-79
2022/11/13 06:13:48;;;;;;;25.90;15.88;;;0.10;99.90;;;-1.47;100.00;101800.78;5047407;28;20125;-78
2022/11/13 06:16:36;;;;;;;29.77;16.58;;;0.10;99.90;;;-1.44;100.00;101797.88;5044158;28;20051;-77
2022/11/13 06:19:20;;;;;;;27.77;16.58;;;0.10;99.90;;;-1.46;100.00;101783.75;5043833;28;20068;-78
2022/11/13 06:22:05;;;;;;;29.30;17.25;;;0.20;99.90;;;-1.38;100.00;101783.19;5045643;28;20102;-77
2022/11/13 06:24:50;;;;;;;30.98;16.63;;;0.20;99.90;;;-1.38;100.00;101780.50;5046250;28;20111;-77
2022/11/13 06:27:34;;;;;;;32.22;17.20;;;0.20;99.90;;;-1.39;100.00;101782.31;5044709;28;20052;-78
2022/11/13 06:30:19;;;;;;;30.90;16.95;;;0.20;99.90;;;-1.36;100.00;101775.91;5046817;28;20384;-77
2022/11/13 06:33:04;;;;;;;31.05;16.60;;;0.20;99.90;;;-1.34;100.00;101772.13;5046208;28;20405;-79
2022/11/13 06:35:48;;;;;;;30.45;16.52;;;0.20;99.90;;;-1.31;100.00;101771.06;5045992;28;20109;-76
2022/11/13 06:38:36;;;;;;;29.30;17.77;;;0.30;99.90;;;-1.21;100.00;101782.81;5042977;28;20043;-79
2022/11/13 06:41:30;;;;;;;30.35;16.42;;;0.40;99.90;;;-1.19;100.00;101780.91;5045915;28;20094;-78
2022/11/13 06:44:14;;;;;;;30.75;16.77;;;0.40;99.90;;;-1.19;100.00;101775.53;5045627;28;20097;-77
2022/11/13 06:46:58;;;;;;;28.95;17.50;;;0.40;99.90;;;-0.89;100.00;101787.66;5046502;28;20059;-79
2022/11/13 06:49:43;;;;;;;29.55;17.02;;;0.70;99.90;;;-0.92;100.00;101795.91;5044517;28;20039;-77
2022/11/13 06:52:27;;;;;;;32.42;18.52;;;0.70;99.90;;;-0.87;100.00;101800.91;5045936;28;20713;-79
2022/11/13 06:55:12;;;;;;;33.95;18.65;;;0.70;99.90;;;-0.92;100.00;101795.91;5046332;28;20044;-77
2022/11/13 06:57:57;;;;;;;34.38;18.92;;;0.70;99.90;;;-0.96;100.00;101804.28;5043475;28;20474;-77
2022/11/13 07:00:42;;;;;;;30.27;18.75;;;0.70;99.90;;;-1.00;100.00;101813.53;5046844;28;20074;-77
2022/11/13 07:03:27;;;;;;;35.72;18.90;;;0.70;99.90;;;-1.11;100.00;101807.09;5042739;28;20051;-80
2022/11/13 07:06:23;;;;;;;31.20;17.58;;;0.60;99.90;;;-1.18;100.00;101804.03;5046984;28;20040;-78
2022/11/13 07:09:07;;;;;;;33.65;18.80;;;0.50;99.90;;;-1.22;100.00;101807.03;5045088;28;20043;-77
2022/11/13 07:11:52;;;;;;;35.03;19.15;;;0.50;99.90;;;-1.17;100.00;101805.75;5045505;28;20044;-77
2022/11/13 07:14:36;;;;;;;35.83;19.15;;;0.50;99.90;;;-1.10;100.00;101806.13;5042811;28;20147;-77
2022/11/13 07:17:21;;;;;;;35.42;20.00;;;0.60;99.90;;;-1.05;100.00;101812.03;5046188;28;20056;-76
2022/11/13 07:20:06;;;;;;;36.35;19.98;;;0.70;99.90;;;-1.03;100.00;101809.22;5048770;28;20122;-77
2022/11/13 07:22:58;;;;;;;37.15;20.20;;;0.70;99.90;;;-0.96;100.00;101812.31;5046039;28;20102;-78
2022/11/13 07:25:43;;;;;;;40.15;19.77;;;0.70;99.90;;;-0.86;100.00;101816.03;5041667;28;20153;-80
2022/11/13 07:28:28;;;;;;;42.55;21.40;;;0.80;99.90;;;-0.74;100.00;101815.13;5046632;28;20150;-82
2022/11/13 07:31:15;;;;;;;43.65;22.58;;;0.90;99.90;;;-0.57;100.00;101806.81;5045676;28;20067;-79
2022/11/13 07:34:00;;;;;;;48.47;23.15;;;1.10;99.90;;;-0.45;100.00;101795.13;5045973;28;20336;-82
2022/11/13 07:36:44;;;;;;;49.33;23.80;;;1.20;99.90;;;-0.34;100.00;101797.00;5045079;28;20056;-83
2022/11/13 07:39:29;;;;;;;47.97;24.80;;;1.30;99.90;;;-0.23;100.00;101802.41;5043702;28;20048;-80
2022/11/13 07:42:13;;;;;;;55.25;27.20;;;1.40;99.90;;;-0.07;100.00;101801.22;5044269;28;20557;-81
2022/11/13 07:44:58;;;;;;;65.00;28.70;;;1.60;99.90;;;0.09;100.00;101792.84;5045181;28;20044;-83
2022/11/13 07:47:43;;;;;;;60.88;28.90;;;1.70;99.90;;;0.25;100.00;101789.78;5046648;28;20043;-79
2022/11/13 07:50:32;;;;;;;66.15;30.08;;;1.90;99.90;;;0.44;100.00;101794.59;5045304;28;20036;-80
2022/11/13 07:53:19;;;;;;;69.32;32.10;;;2.10;99.90;;;0.68;100.00;101799.81;5046149;28;20059;-81
2022/11/13 07:56:04;;;;;;;72.63;32.92;;;2.30;99.90;;;0.83;100.00;101786.13;5046667;28;20099;-82
2022/11/13 07:58:48;;;;;;;79.95;35.22;;;2.50;99.90;;;1.04;100.00;101782.66;5039763;28;20122;-83
2022/11/13 08:01:33;;;;;;;83.03;34.78;;;2.70;99.90;;;1.19;100.00;101776.00;5047311;28;20044;-83
2022/11/13 08:04:17;;;;;;;84.32;37.88;;;2.80;99.90;;;1.36;100.00;101771.91;5041737;28;20091;-84
2022/11/13 08:07:02;;;;;;;85.88;37.92;;;3.00;99.90;;;1.46;100.00;101761.25;5045600;28;20067;-84
2022/11/13 08:09:46;;;;;;;90.43;38.38;;;3.10;99.90;;;1.66;100.00;101759.53;5046850;28;20183;-83
2022/11/13 08:12:31;;;;;;;92.85;40.10;;;3.30;99.90;;;1.89;100.00;101772.03;5047982;28;20048;-87
2022/11/13 08:15:15;;;;;;;103.05;43.85;;;3.50;99.90;;;2.08;100.00;101769.44;5045763;28;20047;-85
2022/11/13 08:18:02;;;;;;;102.82;43.45;;;3.70;99.90;;;2.29;100.00;101774.81;5045532;28;20608;-84
2022/11/13 08:23:09;;;;;;;109.55;49.70;;;4.10;99.90;;;3.08;100.00;101758.00;5054523;28;20389;-85
2022/11/13 08:25:55;;;;;;;109.85;49.38;;;4.50;99.90;;;3.12;100.00;101770.22;5040784;28;20123;-79
2022/11/13 08:28:39;;;;;;;107.25;48.78;;;4.70;99.90;;;3.15;100.00;101768.09;5045512;28;20542;-85
2022/11/13 08:31:24;;;;;;;115.97;49.47;;;4.80;99.90;;;3.32;100.00;101776.50;5061525;28;20040;-80
2022/11/13 08:34:08;;;;;;;110.75;49.03;;;4.90;99.90;;;3.45;100.00;101763.56;5020051;28;20057;-88
2022/11/13 08:36:53;;;;;;;107.28;49.63;;;5.10;99.90;;;3.63;100.00;101761.97;5016809;28;20532;-79
2022/11/13 08:39:37;;;;;;;118.82;51.63;;;5.20;99.90;;;3.87;100.00;101767.78;5010541;28;20049;-82
2022/11/13 08:42:22;;;;;;;118.15;51.17;;;5.40;99.90;;;4.05;100.00;101767.03;5007362;28;20072;-83
2022/11/13 08:45:07;;;;;;;119.50;52.78;;;5.60;99.90;;;4.26;100.00;101761.41;5018133;28;20052;-80
2022/11/13 08:47:52;;;;;;;119.78;52.97;;;5.80;99.90;;;4.43;100.00;101762.47;5017004;28;20531;-85
2022/11/13 08:50:37;;;;;;;128.77;56.90;;;6.00;99.90;;;4.65;100.00;101765.81;5022696;28;20084;-84
2022/11/13 08:53:23;;;;;;;122.20;53.78;;;6.20;99.90;;;4.82;100.00;101763.31;5019816;28;20468;-87
2022/11/13 08:56:07;;;;;;;119.72;54.90;;;6.40;99.90;;;4.97;100.00;101766.34;5021316;28;20499;-89
2022/11/13 08:58:52;;;;;;;113.57;55.72;;;6.50;99.90;;;5.07;100.00;101766.28;5023032;28;20159;-88
2022/11/13 09:01:36;;;;;;;114.45;56.15;;;6.70;99.90;;;5.16;100.00;101771.59;5021905;28;20145;-86
2022/11/13 09:04:21;;;;;;;109.78;52.83;;;6.80;99.90;;;5.21;100.00;101776.56;5018345;28;20521;-89
2022/11/13 09:07:05;;;;;;;106.90;51.15;;;6.80;99.90;;;5.33;100.00;101783.47;5022702;28;20068;-89
2022/11/13 09:09:50;;;;;;;89.82;47.92;;;6.90;99.90;;;5.54;100.00;101786.84;5018522;28;20471;-86
2022/11/13 09:12:38;;;;;;;73.70;44.03;;;6.90;99.90;;;5.79;100.00;101787.06;5023350;28;20130;-85
2022/11/13 09:15:22;;;;;;;64.68;38.50;;;7.00;99.90;;;6.03;100.00;101814.38;5021850;28;20110;-79
2022/11/13 09:18:08;;;;;;;51.53;32.08;;;7.20;99.90;;;6.21;100.00;101831.59;5016860;28;20092;-85
2022/11/13 09:20:54;;;;;;;45.70;29.70;;;7.40;99.90;;;6.51;100.00;101857.38;5013435;28;20077;-87
2022/11/13 09:23:38;;;;;;;40.15;23.95;;;7.60;99.90;;;6.68;100.00;101871.88;5024238;28;20072;-85
2022/11/13 09:26:23;;;;;;;31.00;21.05;;;7.90;99.90;;;6.83;100.00;101873.97;5038266;28;20036;-83
2022/11/13 09:29:09;;;;;;;25.55;17.15;;;8.30;99.90;;;7.14;100.00;101884.28;5018525;28;20065;-85
2022/11/13 09:31:54;;;;;;;22.10;16.42;;;9.10;99.90;;;7.26;100.00;101872.13;5023786;28;20042;-83
2022/11/13 09:34:39;;;;;;;22.00;15.13;;;10.10;99.90;;;7.74;100.00;101868.81;5010367;28;20122;-85
2022/11/13 09:37:23;;;;;;;19.83;13.55;;;11.20;99.90;;;8.26;100.00;101872.22;5009405;28;20049;-83
2022/11/13 09:40:21;;;;;;;17.88;12.65;;;12.00;99.90;;;9.38;94.41;101876.81;5002813;28;20045;-82
2022/11/13 09:43:24;;;;;;;19.15;13.50;;;12.90;99.90;;;10.53;80.08;101873.38;5006473;28;20045;-84
2022/11/13 09:46:48;;;;;;;18.02;12.90;;;13.50;99.90;;;12.49;65.13;101878.13;5004641;28;20465;-83
2022/11/13 09:50:00;;;;;;;19.08;12.68;;;14.50;99.90;;;13.00;59.69;101873.38;5009436;28;20080;-86
2022/11/13 09:52:45;;;;;;;20.50;13.45;;;15.10;98.90;;;11.37;64.16;101875.78;5007060;28;20045;-84
2022/11/13 09:55:56;;;;;;;22.65;13.75;;;14.40;99.00;;;11.07;68.66;101881.28;5007358;28;20049;-85
2022/11/13 09:58:53;;;;;;;18.05;13.20;;;13.30;99.90;;;9.91;73.52;101871.53;5001585;28;20041;-83
2022/11/13 10:02:14;;;;;;;19.95;13.63;;;12.20;99.90;;;9.41;79.00;101871.00;5007360;28;20477;-83
2022/11/13 10:05:11;;;;;;;21.58;14.10;;;11.30;99.90;;;8.94;83.44;101864.59;5003609;28;20061;-83
2022/11/13 10:08:26;;;;;;;21.17;14.25;;;11.00;99.90;;;8.84;87.38;101863.97;4998706;28;20053;-79
2022/11/13 10:11:38;;;;;;;21.67;14.35;;;10.60;99.90;;;9.75;80.98;101855.28;5008363;28;20064;-87
2022/11/13 10:14:36;;;;;;;21.65;14.32;;;10.80;99.90;;;9.88;79.67;101847.38;5009880;28;20049;-83
2022/11/13 10:17:52;;;;;;;20.65;14.38;;;11.40;99.90;;;10.78;73.77;101843.97;5005287;28;20044;-79
2022/11/13 10:20:56;;;;;;;19.35;13.60;;;11.80;99.90;;;11.89;66.10;101833.84;5011823;28;20129;-81
2022/11/13 10:23:51;;;;;;;16.90;12.70;;;12.80;99.90;;;11.50;65.74;101841.47;5016196;28;20037;-81
2022/11/13 10:26:36;;;;;;;19.13;13.30;;;13.20;99.90;;;10.53;71.24;101840.66;5017551;28;20447;-79
2022/11/13 10:29:21;;;;;;;19.90;13.60;;;12.50;99.90;;;10.32;73.63;101831.28;5006165;28;20080;-84
2022/11/13 10:32:22;;;;;;;20.25;14.15;;;12.00;99.90;;;10.06;72.76;101817.03;5007216;28;20053;-78
2022/11/13 10:35:06;;;;;;;19.67;13.98;;;11.90;99.90;;;10.42;75.41;101837.34;4996192;28;20105;-86
2022/11/13 10:38:22;;;;;;;19.50;13.52;;;11.90;99.90;;;10.47;72.36;101837.63;4997620;28;20127;-83
2022/11/13 10:41:18;;;;;;;21.73;14.15;;;12.10;99.90;;;10.23;73.19;101836.00;4992476;28;20045;-82
2022/11/13 10:44:39;;;;;;;22.58;14.77;;;12.00;99.90;;;9.27;78.50;101839.09;5005793;28;20091;-82
2022/11/13 10:47:27;;;;;;;24.03;16.20;;;11.40;99.90;;;8.46;86.93;101834.63;5017976;28;20045;-87
2022/11/13 10:50:28;;;;;;;23.98;15.88;;;10.50;99.90;;;7.86;91.57;101840.28;5003236;28;20108;-87
2022/11/13 10:53:17;;;;;;;24.95;16.27;;;9.90;99.90;;;7.46;95.75;101836.53;5003514;28;20425;-83
2022/11/13 10:56:11;;;;;;;;;;;9.40;99.90;;;6.96;99.89;101817.41;5000085;28;20536;-86
2022/11/13 10:59:18;;;;;;;25.55;16.63;;;9.10;99.90;;;6.67;100.00;101826.78;4998547;28;19936;-79
2022/11/13 11:02:18;;;;;;;28.58;17.70;;;8.70;99.90;;;6.38;100.00;101818.97;5000594;28;20053;-80
2022/11/13 11:05:18;;;;;;;;;;;8.40;99.90;;;6.27;100.00;101806.56;5007710;28;20053;-85
2022/11/13 11:08:09;;;;;;;33.20;17.95;;;8.30;99.90;;;6.02;100.00;101820.78;4997377;28;19932;-84
2022/11/13 11:14:30;;;;;;;34.43;18.10;;;8.00;99.90;;;6.42;100.00;101795.97;5005312;28;20558;-84
2022/11/13 11:17:19;;;;;;;34.85;18.83;;;8.10;99.90;;;6.44;100.00;101796.66;4999795;28;20049;-82
2022/11/13 11:20:22;;;;;;;34.80;19.60;;;8.20;99.90;;;6.23;100.00;101795.16;5023142;28;20036;-81
2022/11/13 11:23:48;;;;;;;38.72;20.92;;;8.00;99.90;;;5.97;100.00;101787.88;5004741;28;20527;-81
2022/11/13 11:26:54;;;;;;;43.30;22.83;;;7.80;99.90;;;5.98;100.00;101786.00;4998271;28;20041;-82
2022/11/13 11:29:50;;;;;;;45.92;22.55;;;7.80;99.90;;;6.05;100.00;101781.69;4998939;28;20064;-83
2022/11/13 11:32:48;;;;;;;45.88;23.25;;;7.80;99.90;;;6.12;100.00;101780.06;5004933;28;20108;-82
2022/11/13 11:35:58;;;;;;;42.58;22.38;;;7.90;99.90;;;6.22;100.00;101776.38;5001445;28;20049;-82